Cosco Kaohsiung — VREM3 — position and weather

sailwx.info

Track history (hours):
 
Tides and Currents Weather Stations Pressure Air Temp Water Temp Dewpoint Dewpoint Depression Visibility Wind Speed Wind Dir Waves Ship Positions

Cosco Kaohsiung

Last reported at 2017-Jan-07 03:25 UTC. Time now 2017-Jan-23 08:39 UTC.
Position N 31°06' E 122°29'.
Warning: this ship's position is 16 days out of date.

Length 349 m; draft 12.1 m.

Type: Ship (hazmat cat A). MMSI: 477136800.

Date/timePositionNaut miles runAvg speedWind from/ knotsBaromVisibWave heightAir tempDewpointWater temp
2017-Jan-07 03:25N 31°06' E 122°29'9 9.3
2017-Jan-07 02:30N 31°06' E 122°19'1213.0
2017-Jan-07 01:33N 31°13' E 122°07'1212.4
2017-Jan-07 00:33N 31°16' E 121°53'1212.0
2017-Jan-06 23:33N 31°21' E 121°40'5 4.7
2017-Jan-06 22:31N 31°23' E 121°35'0 0.0
2017-Jan-06 21:31N 31°23' E 121°35'0 0.0
2017-Jan-06 20:31N 31°23' E 121°35'0 0.0
2017-Jan-06 19:31N 31°23' E 121°35'0 0.0
2017-Jan-06 18:31N 31°23' E 121°35'0 0.0
2017-Jan-06 17:28N 31°23' E 121°35'0 0.0
2017-Jan-06 16:31N 31°23' E 121°35'0 0.0
2017-Jan-06 15:31N 31°23' E 121°35'0 0.0
2017-Jan-06 14:28N 31°23' E 121°35'0 0.0
2017-Jan-06 13:28N 31°23' E 121°35'0 0.0
2017-Jan-06 12:31N 31°23' E 121°35'0 0.0
2017-Jan-06 11:31N 31°23' E 121°35'0 0.0
2017-Jan-06 10:31N 31°23' E 121°35'0 0.0
2017-Jan-06 09:31N 31°23' E 121°35'0 0.0
2017-Jan-06 08:31N 31°23' E 121°35'0 0.0
2017-Jan-06 07:25N 31°23' E 121°35'0 0.0
2017-Jan-06 06:31N 31°23' E 121°35'0 0.0
2017-Jan-06 05:28N 31°23' E 121°35'0 0.0
2017-Jan-06 04:25N 31°23' E 121°35'0 0.0
2017-Jan-06 03:31N 31°23' E 121°35'0 0.0
2017-Jan-06 02:25N 31°23' E 121°35'0 0.0
2017-Jan-06 01:31N 31°23' E 121°35'0 0.0
2017-Jan-06 00:28N 31°23' E 121°35'0 0.0
2017-Jan-05 23:31N 31°23' E 121°35'0 0.0
2017-Jan-05 22:31N 31°23' E 121°35'0 0.1
2017-Jan-05 21:33N 31°23' E 121°35'7 6.6
2017-Jan-05 20:33N 31°20' E 121°42'1010.5
2017-Jan-05 19:33N 31°16' E 121°53'1111.1
2017-Jan-05 18:33N 31°14' E 122°06'1010.3
2017-Jan-05 17:33N 31°08' E 122°15'9 9.2
2017-Jan-05 16:33N 31°06' E 122°26'6 6.3
2017-Jan-05 15:33N 31°07' E 122°33'  
2016-Dec-28 15:33N 01°14' E 103°57'12 8.6
2016-Dec-28 14:07N 01°16' E 103°45'1 2.0
2016-Dec-28 13:33N 01°17' E 103°46'0 0.3
2016-Dec-28 12:30N 01°17' E 103°46'0 0.0
2016-Dec-28 11:33N 01°17' E 103°46'0 0.0
2016-Dec-28 10:21N 01°17' E 103°46'0 0.0
2016-Dec-28 09:15N 01°17' E 103°46'0 0.0
2016-Dec-28 07:09N 01°17' E 103°46'  
Track history (hours):
 
Tides and Currents Weather Stations Pressure Air Temp Water Temp Dewpoint Dewpoint Depression Visibility Wind Speed Wind Dir Waves Ship Positions

Cosco Kaohsiung

Last reported at 2017-Jan-07 03:25 UTC. Time now 2017-Jan-23 08:39 UTC.
Position N 31°06' E 122°29'.
Warning: this ship's position is 16 days out of date.

Length 349 m; draft 12.1 m.

Type: Ship (hazmat cat A). MMSI: 477136800.

Date/timePositionNaut miles runAvg speedWind from/ knotsBaromVisibWave heightAir tempDewpointWater temp
2017-Jan-07 03:25N 31°06' E 122°29'9 9.3
2017-Jan-07 02:30N 31°06' E 122°19'1213.0
2017-Jan-07 01:33N 31°13' E 122°07'1212.4
2017-Jan-07 00:33N 31°16' E 121°53'1212.0
2017-Jan-06 23:33N 31°21' E 121°40'5 4.7
2017-Jan-06 22:31N 31°23' E 121°35'0 0.0
2017-Jan-06 21:31N 31°23' E 121°35'0 0.0
2017-Jan-06 20:31N 31°23' E 121°35'0 0.0
2017-Jan-06 19:31N 31°23' E 121°35'0 0.0
2017-Jan-06 18:31N 31°23' E 121°35'0 0.0
2017-Jan-06 17:28N 31°23' E 121°35'0 0.0
2017-Jan-06 16:31N 31°23' E 121°35'0 0.0
2017-Jan-06 15:31N 31°23' E 121°35'0 0.0
2017-Jan-06 14:28N 31°23' E 121°35'0 0.0
2017-Jan-06 13:28N 31°23' E 121°35'0 0.0
2017-Jan-06 12:31N 31°23' E 121°35'0 0.0
2017-Jan-06 11:31N 31°23' E 121°35'0 0.0
2017-Jan-06 10:31N 31°23' E 121°35'0 0.0
2017-Jan-06 09:31N 31°23' E 121°35'0 0.0
2017-Jan-06 08:31N 31°23' E 121°35'0 0.0
2017-Jan-06 07:25N 31°23' E 121°35'0 0.0
2017-Jan-06 06:31N 31°23' E 121°35'0 0.0
2017-Jan-06 05:28N 31°23' E 121°35'0 0.0
2017-Jan-06 04:25N 31°23' E 121°35'0 0.0
2017-Jan-06 03:31N 31°23' E 121°35'0 0.0
2017-Jan-06 02:25N 31°23' E 121°35'0 0.0
2017-Jan-06 01:31N 31°23' E 121°35'0 0.0
2017-Jan-06 00:28N 31°23' E 121°35'0 0.0
2017-Jan-05 23:31N 31°23' E 121°35'0 0.0
2017-Jan-05 22:31N 31°23' E 121°35'0 0.1
2017-Jan-05 21:33N 31°23' E 121°35'7 6.6
2017-Jan-05 20:33N 31°20' E 121°42'1010.5
2017-Jan-05 19:33N 31°16' E 121°53'1111.1
2017-Jan-05 18:33N 31°14' E 122°06'1010.3
2017-Jan-05 17:33N 31°08' E 122°15'9 9.2
2017-Jan-05 16:33N 31°06' E 122°26'6 6.3
2017-Jan-05 15:33N 31°07' E 122°33'  
2016-Dec-28 15:33N 01°14' E 103°57'12 8.6
2016-Dec-28 14:07N 01°16' E 103°45'1 2.0
2016-Dec-28 13:33N 01°17' E 103°46'0 0.3
2016-Dec-28 12:30N 01°17' E 103°46'0 0.0
2016-Dec-28 11:33N 01°17' E 103°46'0 0.0
2016-Dec-28 10:21N 01°17' E 103°46'0 0.0
2016-Dec-28 09:15N 01°17' E 103°46'0 0.0
2016-Dec-28 07:09N 01°17' E 103°46'  

Dump ship's entire track history